Terminal Aerodrome Forecast
Issued by NWS

Home | Current Version | Previous Version | Text Only | Print | Product List | Glossary On
Versions: 1 2 3 4 5 6 7 8 9 10 11 12 13 14 15 16 17 18 19 20 21 22 23 24
000
FTUS41 KOKX 301430 AAA
TAFHPN
TAF AMD
KHPN 301430Z 3015/0112 VRB04KT P6SM BKN050
     FM301600 11007KT P6SM SCT060 SCT250
     FM302000 16006KT P6SM SCT250
     FM010200 VRB04KT P6SM SCT080 BKN120
      AMD NOT SKED=

USA.gov is the U.S. government's official web portal to all federal, state and local government web resources and services.